Time;durP1;ratioP1;P1;durP2;ratioP2;P2;SDS_P1;SDS_P2;PMS_P1;PMS_P2;Temp;Humidity;BMP_temperature;BMP_pressure;BME280_temperature;BME280_humidity;BME280_pressure;Samples;Min_cycle;Max_cycle;Signal;HPM_P1;HPM_P2
2021/03/27 00:00:09;;;;;;;4.27;3.87;;;12.10;99.00;;;;;;5073338;28;20849;-67
2021/03/27 00:02:43;;;;;;;6.60;4.43;;;12.10;99.10;;;;;;5098748;28;20445;-69
2021/03/27 00:05:18;;;;;;;4.00;3.37;;;12.10;99.20;;;;;;5074289;28;21013;-70
2021/03/27 00:07:58;;;;;;;5.07;4.10;;;12.10;99.20;;;;;;5065836;28;20449;-70
2021/03/27 00:10:41;;;;;;;4.73;3.30;;;12.00;99.30;;;;;;5065825;28;20448;-69
2021/03/27 00:13:23;;;;;;;3.60;2.90;;;12.00;99.40;;;;;;5085335;28;20455;-70
2021/03/27 00:15:57;;;;;;;4.27;3.20;;;12.10;99.40;;;;;;5082443;28;20464;-70
2021/03/27 00:18:35;;;;;;;3.90;3.23;;;12.10;99.50;;;;;;5088377;28;20453;-70
2021/03/27 00:21:06;;;;;;;5.63;3.30;;;12.10;99.30;;;;;;5079888;28;20461;-69
2021/03/27 00:23:40;;;;;;;5.57;3.53;;;12.10;99.30;;;;;;5067914;28;20529;-70
2021/03/27 00:26:12;;;;;;;3.30;2.77;;;12.10;99.40;;;;;;5057127;28;20881;-69
2021/03/27 00:28:45;;;;;;;3.00;2.73;;;12.10;99.80;;;;;;5086701;28;20493;-70
2021/03/27 00:31:15;;;;;;;4.13;3.27;;;12.10;99.70;;;;;;5063372;28;20453;-69
2021/03/27 00:33:47;;;;;;;5.43;3.50;;;12.00;99.60;;;;;;5090638;28;20524;-68
2021/03/27 00:36:21;;;;;;;4.83;3.50;;;12.00;99.80;;;;;;5071604;28;20932;-69
2021/03/27 00:38:59;;;;;;;2.90;2.70;;;12.00;99.80;;;;;;5066927;28;20452;-69
2021/03/27 00:41:34;;;;;;;3.47;2.93;;;12.00;99.80;;;;;;5079689;28;20453;-71
2021/03/27 00:44:03;;;;;;;5.33;3.60;;;12.00;99.90;;;;;;5061194;28;20448;-69
2021/03/27 00:46:31;;;;;;;3.40;2.70;;;12.00;99.80;;;;;;5058906;28;20454;-69
2021/03/27 00:49:05;;;;;;;3.20;2.90;;;12.00;99.90;;;;;;5035039;28;20500;-70
2021/03/27 00:51:43;;;;;;;2.67;2.40;;;12.00;99.90;;;;;;5067815;28;20460;-71
2021/03/27 00:54:24;;;;;;;5.57;3.60;;;12.00;99.90;;;;;;5071568;28;20812;-69
2021/03/27 00:57:06;;;;;;;4.30;3.57;;;11.90;99.90;;;;;;5066084;28;20461;-70
2021/03/27 00:59:35;;;;;;;5.53;3.40;;;11.90;99.90;;;;;;5086958;28;20448;-71
2021/03/27 01:02:14;;;;;;;4.23;3.30;;;11.90;99.90;;;;;;5057529;28;20535;-70
2021/03/27 01:05:01;;;;;;;4.87;3.30;;;11.90;99.90;;;;;;5072730;28;20497;-70
2021/03/27 01:07:47;;;;;;;4.53;3.20;;;11.90;99.90;;;;;;5089262;28;20499;-70
2021/03/27 01:10:40;;;;;;;3.80;3.00;;;11.80;99.90;;;;;;5071956;28;20453;-71
2021/03/27 01:13:42;;;;;;;4.47;3.07;;;11.80;99.90;;;;;;5076781;28;20452;-71
2021/03/27 01:16:13;;;;;;;3.50;3.20;;;11.80;99.90;;;;;;5075597;28;20469;-70
2021/03/27 01:18:49;;;;;;;4.77;3.37;;;11.80;99.90;;;;;;5056031;28;20454;-70
2021/03/27 01:21:23;;;;;;;5.00;3.20;;;11.80;99.90;;;;;;5054794;28;20448;-69
2021/03/27 01:23:58;;;;;;;4.23;3.50;;;11.70;99.90;;;;;;5078113;28;20452;-68
2021/03/27 01:26:29;;;;;;;3.43;3.07;;;11.70;99.90;;;;;;5089354;28;20464;-69
2021/03/27 01:29:06;;;;;;;4.30;3.17;;;11.70;99.90;;;;;;5078468;28;20464;-69
2021/03/27 01:31:42;;;;;;;5.13;3.50;;;11.70;99.90;;;;;;5071102;28;20448;-69
2021/03/27 01:34:29;;;;;;;5.37;3.67;;;11.60;99.90;;;;;;5083200;28;20838;-70
2021/03/27 01:37:14;;;;;;;5.67;4.27;;;11.60;99.90;;;;;;5057326;28;20627;-69
2021/03/27 01:39:48;;;;;;;4.33;3.93;;;11.60;99.90;;;;;;5091159;28;20441;-70
2021/03/27 01:42:34;;;;;;;7.03;4.13;;;11.60;99.90;;;;;;5091608;28;20462;-69
2021/03/27 01:45:26;;;;;;;5.33;3.40;;;11.60;99.90;;;;;;5074345;28;20459;-70
2021/03/27 01:48:18;;;;;;;5.93;4.27;;;11.50;99.90;;;;;;5063598;28;20452;-69
2021/03/27 01:50:59;;;;;;;5.40;4.53;;;11.40;99.90;;;;;;5085907;28;20445;-70
2021/03/27 01:53:37;;;;;;;8.10;5.60;;;11.40;99.90;;;;;;5080018;28;20453;-69
2021/03/27 01:56:53;;;;;;;6.07;4.90;;;11.30;99.90;;;;;;5076866;28;20504;-70
2021/03/27 01:59:48;;;;;;;7.70;4.90;;;11.20;99.90;;;;;;5019050;28;20467;-70
2021/03/27 02:02:26;;;;;;;6.17;4.87;;;11.20;99.90;;;;;;5000429;28;20841;-69
2021/03/27 02:05:01;;;;;;;6.67;4.50;;;11.20;99.90;;;;;;5065637;28;20524;-69
2021/03/27 02:07:47;;;;;;;6.07;4.27;;;11.20;99.90;;;;;;5092332;28;20459;-69
2021/03/27 02:10:16;;;;;;;6.07;3.80;;;11.20;99.90;;;;;;5070599;28;20494;-69
2021/03/27 02:12:54;;;;;;;5.20;3.77;;;11.10;99.90;;;;;;5079605;28;20452;-70
2021/03/27 02:15:38;;;;;;;4.60;3.90;;;11.10;99.90;;;;;;5086958;27;20480;-69
2021/03/27 02:18:30;;;;;;;6.23;3.33;;;11.00;99.90;;;;;;5079765;28;20521;-70
2021/03/27 02:21:07;;;;;;;4.37;3.23;;;10.90;99.90;;;;;;5069857;28;20450;-69
2021/03/27 02:24:10;;;;;;;4.30;3.20;;;10.90;99.90;;;;;;5070279;28;20436;-68
2021/03/27 02:27:13;;;;;;;5.07;3.00;;;10.90;99.90;;;;;;5064182;28;20442;-69
2021/03/27 02:30:05;;;;;;;3.10;2.63;;;10.90;99.90;;;;;;5086284;28;20506;-70
2021/03/27 02:32:45;;;;;;;2.20;2.00;;;10.90;99.90;;;;;;5073034;28;20453;-70
2021/03/27 02:35:14;;;;;;;2.03;1.87;;;10.90;99.90;;;;;;5068320;28;20488;-69
2021/03/27 02:38:03;;;;;;;2.80;2.60;;;10.80;99.90;;;;;;5090165;28;20508;-69
2021/03/27 02:40:34;;;;;;;3.40;1.90;;;10.70;99.90;;;;;;5085590;28;20532;-70
2021/03/27 02:43:20;;;;;;;2.03;1.80;;;10.60;99.90;;;;;;5054318;28;20477;-69
2021/03/27 02:46:09;;;;;;;3.77;2.47;;;10.60;99.90;;;;;;5062948;28;20453;-70
2021/03/27 02:49:10;;;;;;;1.67;1.50;;;10.50;99.90;;;;;;5074725;28;20445;-69
2021/03/27 02:51:51;;;;;;;2.40;1.80;;;10.50;99.90;;;;;;5106077;27;20432;-68
2021/03/27 02:54:38;;;;;;;2.00;1.53;;;10.50;99.90;;;;;;5075307;28;20455;-70
2021/03/27 02:57:13;;;;;;;0.83;0.83;;;10.50;99.90;;;;;;5068410;28;20461;-69
2021/03/27 02:59:52;;;;;;;1.20;0.70;;;10.50;99.90;;;;;;5080709;28;20437;-70
2021/03/27 03:02:34;;;;;;;0.90;0.57;;;10.50;99.90;;;;;;5094997;28;20485;-69
2021/03/27 03:04:59;;;;;;;0.53;0.53;;;10.50;99.90;;;;;;5097160;28;20449;-70
2021/03/27 03:07:31;;;;;;;0.50;0.50;;;10.40;99.90;;;;;;5068934;28;20502;-70
2021/03/27 03:10:02;;;;;;;0.60;0.60;;;10.40;99.90;;;;;;5074124;28;20240;-69
2021/03/27 03:12:51;;;;;;;0.57;0.57;;;10.20;99.90;;;;;;5072517;28;20461;-69
2021/03/27 03:15:26;;;;;;;1.80;0.60;;;10.20;99.90;;;;;;5074324;28;20492;-70
2021/03/27 03:17:54;;;;;;;0.90;0.67;;;10.10;99.90;;;;;;5071976;28;20452;-70
2021/03/27 03:20:47;;;;;;;0.50;0.50;;;10.10;99.90;;;;;;5070358;28;20450;-69
2021/03/27 03:23:30;;;;;;;0.80;0.50;;;10.00;99.90;;;;;;5079502;28;20795;-68
2021/03/27 03:26:14;;;;;;;0.60;0.47;;;9.80;99.90;;;;;;5098892;28;20441;-70
2021/03/27 03:28:48;;;;;;;0.33;0.30;;;9.80;99.90;;;;;;5067036;28;20682;-69
2021/03/27 03:31:39;;;;;;;0.40;0.40;;;9.60;99.90;;;;;;5076882;28;20449;-70
2021/03/27 03:34:07;;;;;;;0.50;0.40;;;9.60;99.90;;;;;;5058169;28;20830;-69
2021/03/27 03:36:59;;;;;;;0.40;0.30;;;9.60;99.90;;;;;;5078772;28;20459;-70
2021/03/27 03:39:44;;;;;;;0.30;0.20;;;9.50;99.90;;;;;;5078935;28;20448;-69
2021/03/27 03:42:47;;;;;;;0.40;0.40;;;9.30;99.90;;;;;;5076944;28;20448;-69
2021/03/27 03:45:33;;;;;;;0.40;0.37;;;9.30;99.90;;;;;;5071841;28;20979;-70
2021/03/27 03:48:12;;;;;;;0.40;0.30;;;9.20;99.90;;;;;;5074228;28;21010;-69
2021/03/27 03:50:55;;;;;;;0.40;0.30;;;9.10;99.90;;;;;;5088737;28;20438;-69
2021/03/27 03:53:47;;;;;;;0.30;0.30;;;9.00;99.90;;;;;;5090603;28;20466;-70
2021/03/27 03:56:18;;;;;;;0.40;0.30;;;8.80;99.90;;;;;;5089956;27;20496;-69
2021/03/27 03:58:54;;;;;;;0.40;0.30;;;8.80;99.90;;;;;;5095822;28;20449;-69
2021/03/27 04:01:30;;;;;;;0.40;0.30;;;8.70;99.90;;;;;;5068810;27;20480;-70
2021/03/27 04:04:07;;;;;;;0.67;0.40;;;8.60;99.90;;;;;;5074065;28;20457;-69
2021/03/27 04:06:37;;;;;;;0.40;0.30;;;8.50;99.90;;;;;;5086164;28;20442;-70
2021/03/27 04:09:10;;;;;;;0.40;0.40;;;8.50;99.90;;;;;;5069164;28;20458;-70
2021/03/27 04:11:44;;;;;;;0.60;0.40;;;8.40;99.90;;;;;;5051694;28;20492;-70
2021/03/27 04:14:43;;;;;;;0.40;0.40;;;8.40;99.90;;;;;;5085667;28;20540;-69
2021/03/27 04:17:47;;;;;;;0.40;0.30;;;8.20;99.90;;;;;;5069069;28;20484;-69
2021/03/27 04:20:19;;;;;;;1.40;0.40;;;8.20;99.90;;;;;;5058572;27;20526;-70
2021/03/27 04:22:52;;;;;;;0.40;0.37;;;8.30;99.90;;;;;;5062498;28;20444;-70
2021/03/27 04:25:26;;;;;;;2.30;0.40;;;8.30;99.90;;;;;;5087829;27;20453;-69
2021/03/27 04:27:55;;;;;;;0.60;0.50;;;8.30;99.90;;;;;;5077693;28;20451;-69
2021/03/27 04:30:45;;;;;;;0.70;0.40;;;8.30;99.90;;;;;;5088760;28;20871;-70
2021/03/27 04:33:40;;;;;;;0.43;0.40;;;8.20;99.90;;;;;;5089136;28;20469;-70
2021/03/27 04:36:40;;;;;;;0.73;0.43;;;8.10;99.90;;;;;;5062855;28;20468;-69
2021/03/27 04:39:24;;;;;;;0.60;0.43;;;8.10;99.90;;;;;;5027751;28;20456;-69
2021/03/27 04:42:05;;;;;;;0.50;0.40;;;8.00;99.90;;;;;;5065875;28;20445;-69
2021/03/27 04:45:06;;;;;;;0.40;0.30;;;7.90;99.90;;;;;;5092415;28;20452;-69
2021/03/27 04:47:40;;;;;;;0.40;0.30;;;7.90;99.90;;;;;;5092730;28;20511;-70
2021/03/27 04:50:28;;;;;;;0.87;0.40;;;7.80;99.90;;;;;;5072083;28;20449;-69
2021/03/27 04:53:14;;;;;;;0.50;0.50;;;7.70;99.90;;;;;;5101907;28;20444;-70
2021/03/27 04:56:02;;;;;;;0.40;0.40;;;7.70;99.90;;;;;;5096122;28;20456;-70
2021/03/27 04:58:57;;;;;;;0.40;0.40;;;7.60;99.90;;;;;;5088389;27;20464;-69
2021/03/27 05:01:37;;;;;;;0.40;0.40;;;7.50;99.90;;;;;;5076488;28;20460;-69
2021/03/27 05:04:17;;;;;;;1.70;0.40;;;7.50;99.90;;;;;;5094769;28;20535;-69
2021/03/27 05:07:13;;;;;;;0.40;0.40;;;7.50;99.90;;;;;;5083941;28;20463;-70
2021/03/27 05:10:14;;;;;;;1.07;0.50;;;7.50;99.90;;;;;;5094906;28;20542;-69
2021/03/27 05:13:17;;;;;;;0.67;0.40;;;7.40;99.90;;;;;;5103336;28;20992;-69
2021/03/27 05:15:51;;;;;;;0.50;0.50;;;7.40;99.90;;;;;;5090711;28;20471;-70
2021/03/27 05:18:28;;;;;;;0.90;0.70;;;7.40;99.90;;;;;;5075121;28;20456;-69
2021/03/27 05:21:01;;;;;;;1.30;0.70;;;7.40;99.90;;;;;;5075003;28;20453;-70
2021/03/27 05:24:04;;;;;;;0.60;0.60;;;7.30;99.90;;;;;;5072072;27;20475;-69
2021/03/27 05:26:50;;;;;;;0.40;0.33;;;7.40;99.90;;;;;;5070618;27;20452;-69
2021/03/27 05:29:44;;;;;;;0.70;0.53;;;7.30;99.90;;;;;;5091709;27;20466;-69
2021/03/27 05:32:35;;;;;;;0.73;0.50;;;7.20;99.90;;;;;;5112908;28;20471;-69
2021/03/27 05:35:27;;;;;;;1.07;0.57;;;7.10;99.90;;;;;;5081618;28;20476;-70
2021/03/27 05:38:12;;;;;;;0.40;0.30;;;7.00;99.90;;;;;;5069467;28;20479;-70
2021/03/27 05:41:00;;;;;;;0.70;0.50;;;7.00;99.90;;;;;;5090290;28;20452;-69
2021/03/27 05:43:34;;;;;;;2.63;0.57;;;7.00;99.90;;;;;;5075460;27;20449;-69
2021/03/27 05:46:28;;;;;;;1.43;0.47;;;7.00;99.90;;;;;;5095702;28;20452;-71
2021/03/27 05:49:15;;;;;;;0.40;0.30;;;6.90;99.90;;;;;;5095279;28;20504;-69
2021/03/27 05:52:18;;;;;;;10.70;4.30;;;7.00;99.90;;;;;;5073803;28;20453;-69
2021/03/27 05:54:50;;;;;;;15.35;8.15;;;7.00;99.90;;;;;;5071229;28;20815;-69
2021/03/27 05:57:25;;;;;;;19.23;8.47;;;7.00;99.90;;;;;;5054832;28;20445;-69
2021/03/27 06:00:26;;;;;;;18.83;9.70;;;7.00;99.90;;;;;;5083121;28;20447;-69
2021/03/27 06:03:32;;;;;;;19.67;7.20;;;7.00;99.90;;;;;;5085647;28;20507;-69
2021/03/27 06:06:21;;;;;;;7.50;4.77;;;7.00;99.90;;;;;;5060019;28;21131;-70
2021/03/27 06:09:12;;;;;;;9.00;4.70;;;7.00;99.90;;;;;;5085111;28;20471;-70
2021/03/27 06:11:56;;;;;;;3.80;3.33;;;7.00;99.90;;;;;;5074201;28;20494;-70
2021/03/27 06:14:49;;;;;;;2.03;1.80;;;6.90;99.90;;;;;;5090649;28;20528;-70
2021/03/27 06:17:32;;;;;;;1.10;1.00;;;7.00;99.90;;;;;;5074848;27;20464;-69
2021/03/27 06:20:13;;;;;;;0.70;0.70;;;7.00;99.90;;;;;;5094976;28;20459;-70
2021/03/27 06:23:10;;;;;;;0.80;0.80;;;7.00;99.90;;;;;;5111271;28;20455;-69
2021/03/27 06:25:54;;;;;;;1.63;1.53;;;7.10;99.90;;;;;;5106055;28;20448;-70
2021/03/27 06:28:42;;;;;;;1.50;1.40;;;7.00;99.90;;;;;;5090606;28;20441;-70
2021/03/27 06:31:17;;;;;;;3.23;2.73;;;7.00;99.90;;;;;;5074332;28;21047;-69
2021/03/27 06:34:28;;;;;;;2.70;2.23;;;7.00;99.90;;;;;;5073709;28;20483;-69
2021/03/27 06:37:23;;;;;;;1.20;1.10;;;7.00;99.90;;;;;;5073280;28;20550;-69
2021/03/27 06:39:49;;;;;;;0.70;0.70;;;7.00;99.90;;;;;;5066630;28;20468;-69
2021/03/27 06:42:33;;;;;;;1.30;0.90;;;6.90;99.90;;;;;;5074289;27;20479;-70
2021/03/27 06:45:05;;;;;;;0.70;0.63;;;6.90;99.90;;;;;;5079100;28;20226;-69
2021/03/27 06:47:53;;;;;;;1.03;0.70;;;6.90;99.90;;;;;;5091804;28;21026;-69
2021/03/27 06:50:43;;;;;;;0.80;0.80;;;6.90;99.90;;;;;;5094203;27;20459;-69
2021/03/27 06:53:27;;;;;;;1.53;1.10;;;6.90;99.90;;;;;;5085859;28;20463;-69
2021/03/27 06:56:17;;;;;;;2.63;1.60;;;7.00;99.90;;;;;;5074844;28;20579;-69
2021/03/27 06:59:04;;;;;;;3.70;3.23;;;7.10;99.90;;;;;;5070055;28;20453;-69
2021/03/27 07:02:07;;;;;;;4.00;3.37;;;7.10;99.90;;;;;;5101107;27;20845;-69
2021/03/27 07:04:44;;;;;;;4.90;2.20;;;7.20;99.90;;;;;;5062397;28;20461;-69
2021/03/27 07:07:31;;;;;;;1.50;1.40;;;7.20;99.90;;;;;;5068722;28;20548;-69
2021/03/27 07:10:22;;;;;;;3.10;2.83;;;7.20;99.90;;;;;;5072743;28;20475;-70
2021/03/27 07:13:25;;;;;;;3.03;2.57;;;7.20;99.90;;;;;;5090363;28;20451;-69
2021/03/27 07:16:25;;;;;;;3.83;1.80;;;7.30;99.90;;;;;;5088983;28;20467;-68
2021/03/27 07:19:26;;;;;;;1.97;1.87;;;7.30;99.90;;;;;;5067346;28;20448;-71
2021/03/27 07:22:16;;;;;;;2.70;2.07;;;7.40;99.90;;;;;;5090437;28;20443;-70
2021/03/27 07:25:10;;;;;;;1.73;1.47;;;7.50;99.90;;;;;;5062189;28;20883;-69
2021/03/27 07:28:07;;;;;;;3.13;1.90;;;7.50;99.90;;;;;;5095762;27;20447;-69
2021/03/27 07:30:41;;;;;;;2.27;1.53;;;7.60;99.90;;;;;;5098724;28;20452;-67
2021/03/27 07:33:28;;;;;;;1.50;1.40;;;7.70;99.90;;;;;;5090185;28;20484;-69
2021/03/27 07:36:21;;;;;;;1.47;1.37;;;7.70;99.90;;;;;;5084271;28;20464;-68
2021/03/27 07:39:12;;;;;;;3.47;2.07;;;7.80;99.90;;;;;;5052709;28;20450;-69
2021/03/27 07:42:15;;;;;;;1.90;1.70;;;7.90;99.90;;;;;;5086006;28;20461;-69
2021/03/27 07:45:10;;;;;;;1.30;1.20;;;7.90;99.90;;;;;;5083618;28;20508;-69
2021/03/27 07:47:45;;;;;;;0.87;0.60;;;8.10;99.90;;;;;;5094787;27;20443;-69
2021/03/27 07:50:13;;;;;;;1.40;1.17;;;8.10;99.90;;;;;;5089243;28;20471;-69
2021/03/27 07:53:17;;;;;;;1.17;1.07;;;8.20;99.90;;;;;;5083670;28;20448;-69
2021/03/27 07:56:08;;;;;;;1.87;1.20;;;8.30;99.90;;;;;;5080331;28;20472;-69
2021/03/27 07:58:51;;;;;;;1.30;1.10;;;8.40;99.90;;;;;;5088283;28;20535;-69
2021/03/27 08:01:35;;;;;;;3.30;1.10;;;8.50;99.90;;;;;;5088883;28;20467;-71
2021/03/27 08:04:25;;;;;;;1.13;1.00;;;8.60;99.90;;;;;;5068240;28;20575;-69
2021/03/27 08:07:10;;;;;;;1.80;0.90;;;8.70;99.90;;;;;;5069081;28;20469;-69
2021/03/27 08:10:13;;;;;;;0.60;0.60;;;8.80;99.90;;;;;;5080945;28;20449;-68
2021/03/27 08:13:00;;;;;;;0.60;0.60;;;8.80;99.50;;;;;;5098237;28;20458;-69
2021/03/27 08:16:03;;;;;;;1.00;0.73;;;8.90;99.20;;;;;;5071682;28;21072;-70
2021/03/27 08:18:50;;;;;;;1.77;1.23;;;8.90;99.40;;;;;;5074099;27;20440;-70
2021/03/27 08:21:49;;;;;;;0.70;0.70;;;9.00;99.20;;;;;;5085690;28;21003;-71
2021/03/27 08:24:36;;;;;;;1.23;0.87;;;9.10;99.70;;;;;;5070056;27;20468;-70
2021/03/27 08:27:35;;;;;;;3.60;0.80;;;9.10;99.80;;;;;;5090670;27;20448;-69
2021/03/27 08:30:35;;;;;;;1.57;1.00;;;9.10;99.40;;;;;;5060185;28;20460;-68
2021/03/27 08:33:19;;;;;;;2.77;0.73;;;9.10;99.50;;;;;;5063543;28;20445;-70
2021/03/27 08:36:13;;;;;;;2.40;0.87;;;9.10;99.20;;;;;;5082660;28;20468;-69
2021/03/27 08:39:05;;;;;;;1.40;0.70;;;9.10;99.30;;;;;;5100990;28;20892;-71
2021/03/27 08:42:05;;;;;;;0.80;0.60;;;9.10;99.30;;;;;;5051682;28;20507;-70
2021/03/27 08:48:59;;;;;;;2.13;0.87;;;9.30;99.70;;;;;;5095575;27;20455;-70
2021/03/27 08:51:48;;;;;;;0.83;0.83;;;9.50;99.60;;;;;;5084022;27;20455;-70
2021/03/27 08:54:51;;;;;;;0.90;0.67;;;9.60;99.20;;;;;;5092023;27;20495;-70
2021/03/27 08:57:35;;;;;;;1.60;1.50;;;9.60;98.80;;;;;;5091995;27;20482;-69
2021/03/27 09:00:38;;;;;;;9.53;3.97;;;9.60;98.90;;;;;;5091826;28;20951;-70
2021/03/27 09:03:34;;;;;;;3.57;3.20;;;9.70;99.00;;;;;;5084710;28;20452;-69
2021/03/27 09:06:12;;;;;;;3.77;3.17;;;9.80;98.50;;;;;;5053475;28;20453;-70
2021/03/27 09:09:25;;;;;;;4.07;2.77;;;9.80;97.80;;;;;;5088209;28;20433;-70
2021/03/27 09:12:12;;;;;;;1.53;1.43;;;9.80;97.60;;;;;;5071563;28;20437;-69
2021/03/27 09:14:59;;;;;;;1.23;1.00;;;9.80;98.20;;;;;;5088374;28;20448;-69
2021/03/27 09:17:46;;;;;;;1.00;0.90;;;9.90;97.90;;;;;;5087986;27;20484;-69
2021/03/27 09:20:42;;;;;;;3.00;0.77;;;9.90;98.00;;;;;;5065570;28;20468;-68
2021/03/27 09:23:29;;;;;;;1.20;1.13;;;10.10;97.80;;;;;;5067890;28;20479;-69
2021/03/27 09:26:24;;;;;;;3.70;1.57;;;10.10;97.70;;;;;;5068875;28;21024;-69
2021/03/27 09:29:27;;;;;;;3.33;2.87;;;10.20;97.90;;;;;;5067724;28;20553;-69
2021/03/27 09:32:27;;;;;;;2.97;2.40;;;10.40;97.90;;;;;;5100486;28;20438;-70
2021/03/27 09:35:10;;;;;;;1.57;1.47;;;10.40;98.10;;;;;;5098248;28;20981;-70
2021/03/27 09:37:44;;;;;;;1.63;1.53;;;10.40;98.40;;;;;;5092987;28;20473;-69
2021/03/27 09:40:23;;;;;;;6.23;4.50;;;10.20;98.10;;;;;;5091000;28;20449;-69
2021/03/27 09:43:02;;;;;;;4.10;3.10;;;10.10;98.20;;;;;;5081096;28;20443;-69
2021/03/27 09:46:15;;;;;;;4.13;2.50;;;10.00;98.40;;;;;;5084225;27;20540;-69
2021/03/27 09:49:14;;;;;;;4.13;2.60;;;9.90;99.40;;;;;;5073640;28;20976;-69
2021/03/27 09:52:02;;;;;;;4.10;1.20;;;9.90;99.50;;;;;;5100885;28;20966;-69
2021/03/27 09:54:51;;;;;;;2.10;1.17;;;9.90;99.90;;;;;;5065979;28;20453;-69
2021/03/27 09:57:49;;;;;;;0.80;0.80;;;10.00;99.40;;;;;;5094360;27;20472;-70
2021/03/27 10:00:21;;;;;;;1.70;1.13;;;10.00;99.90;;;;;;5067831;27;20475;-71
2021/03/27 10:03:25;;;;;;;1.53;1.10;;;10.00;99.90;;;;;;5084996;28;20504;-69
2021/03/27 10:06:12;;;;;;;2.60;1.00;;;10.10;99.90;;;;;;5070418;28;20456;-70
2021/03/27 10:08:46;;;;;;;1.83;1.30;;;10.20;99.90;;;;;;5087125;27;20449;-69
2021/03/27 10:11:22;;;;;;;2.13;0.97;;;10.30;99.90;;;;;;5067300;28;21029;-69
2021/03/27 10:14:20;;;;;;;1.33;1.10;;;10.30;99.90;;;;;;5070620;28;20449;-69
2021/03/27 10:17:04;;;;;;;2.13;1.10;;;10.40;99.90;;;;;;5031411;28;20992;-69
2021/03/27 10:19:53;;;;;;;0.83;0.83;;;10.60;99.90;;;;;;5074907;27;20448;-69
2021/03/27 10:22:44;;;;;;;1.70;1.20;;;10.70;99.90;;;;;;5070973;27;20456;-70
2021/03/27 10:25:22;;;;;;;42.27;18.57;;;10.80;99.90;;;;;;5085665;28;20456;-69
2021/03/27 10:28:02;;;;;;;61.80;24.77;;;10.90;99.90;;;;;;5086193;28;20941;-69
2021/03/27 10:30:42;;;;;;;26.10;14.10;;;11.10;99.10;;;;;;5081479;28;20466;-69
2021/03/27 10:33:27;;;;;;;6.63;3.23;;;11.20;98.50;;;;;;5064754;28;20472;-69
2021/03/27 10:36:03;;;;;;;1.27;1.07;;;11.40;97.90;;;;;;5084488;28;20837;-70
2021/03/27 10:38:40;;;;;;;2.47;1.30;;;11.40;97.60;;;;;;5080141;28;20995;-70
2021/03/27 10:41:34;;;;;;;3.00;0.93;;;11.60;97.00;;;;;;5079306;28;20465;-70
2021/03/27 10:44:33;;;;;;;0.97;0.97;;;11.60;97.10;;;;;;5062299;28;20520;-69
2021/03/27 10:47:15;;;;;;;1.33;0.80;;;11.70;96.50;;;;;;5065300;28;20469;-70
2021/03/27 10:50:03;;;;;;;1.87;0.83;;;11.60;96.50;;;;;;5073266;28;20459;-69
2021/03/27 10:52:38;;;;;;;1.43;0.80;;;11.60;96.00;;;;;;5097628;27;20485;-70
2021/03/27 10:55:42;;;;;;;1.10;1.00;;;11.60;95.60;;;;;;5085220;28;20522;-69
2021/03/27 10:58:33;;;;;;;1.53;1.00;;;11.40;94.70;;;;;;4988988;28;20502;-69
2021/03/27 11:01:26;;;;;;;1.00;1.00;;;11.10;94.60;;;;;;5081673;28;20460;-67
2021/03/27 11:04:29;;;;;;;2.33;0.80;;;11.10;95.30;;;;;;5083784;28;20451;-69
2021/03/27 11:07:30;;;;;;;1.50;1.10;;;11.00;96.30;;;;;;5082539;28;20546;-70
2021/03/27 11:10:33;;;;;;;0.87;0.87;;;10.80;97.60;;;;;;5028482;28;20457;-70
2021/03/27 11:13:33;;;;;;;0.83;0.83;;;10.70;99.20;;;;;;5079146;28;20461;-69
2021/03/27 11:16:26;;;;;;;4.30;0.77;;;10.50;99.90;;;;;;5066317;28;20478;-69
2021/03/27 11:19:07;;;;;;;0.83;0.83;;;10.40;99.90;;;;;;5069700;28;20969;-70
2021/03/27 11:21:57;;;;;;;1.13;0.83;;;10.40;99.90;;;;;;5061181;28;20448;-69
2021/03/27 11:25:07;;;;;;;4.30;0.83;;;10.30;99.90;;;;;;5075105;28;20452;-69
2021/03/27 11:28:00;;;;;;;2.10;0.70;;;10.20;99.90;;;;;;5084094;28;20528;-70
2021/03/27 11:30:46;;;;;;;4.53;0.80;;;10.20;99.90;;;;;;5078946;28;21006;-70
2021/03/27 11:33:28;;;;;;;2.10;1.20;;;10.10;99.90;;;;;;5068301;28;20473;-69
2021/03/27 11:36:22;;;;;;;0.63;0.63;;;10.10;99.90;;;;;;5063257;28;20504;-69
2021/03/27 11:39:01;;;;;;;0.70;0.67;;;10.00;99.90;;;;;;5085640;27;20444;-69
2021/03/27 11:42:02;;;;;;;3.00;1.40;;;9.90;99.90;;;;;;5049222;27;20564;-69
2021/03/27 11:44:45;;;;;;;1.83;0.90;;;9.80;99.90;;;;;;5038637;28;20501;-70
2021/03/27 11:47:25;;;;;;;2.50;1.07;;;9.80;99.90;;;;;;5023340;28;20983;-70
2021/03/27 11:50:05;;;;;;;2.47;1.03;;;9.60;99.90;;;;;;5021014;28;20496;-69
2021/03/27 11:52:46;;;;;;;2.50;0.90;;;9.60;99.90;;;;;;5048705;28;20472;-69
2021/03/27 11:55:25;;;;;;;2.73;0.97;;;9.70;99.90;;;;;;5041933;28;20478;-70
2021/03/27 11:58:21;;;;;;;3.30;0.87;;;9.70;99.90;;;;;;5017961;28;20824;-70
2021/03/27 12:01:04;;;;;;;4.60;1.27;;;9.70;99.90;;;;;;5042337;28;20534;-69
2021/03/27 12:04:02;;;;;;;4.40;0.97;;;9.80;99.90;;;;;;5043975;28;20465;-69
2021/03/27 12:06:32;;;;;;;2.10;1.30;;;9.80;99.90;;;;;;5048551;28;20475;-69
2021/03/27 12:09:34;;;;;;;3.80;2.47;;;9.80;99.90;;;;;;5047670;28;21007;-69
2021/03/27 12:12:27;;;;;;;10.90;5.10;;;9.80;99.90;;;;;;5037719;28;20460;-68
2021/03/27 12:15:14;;;;;;;6.83;4.10;;;9.80;99.90;;;;;;5027008;28;20454;-70
2021/03/27 12:17:51;;;;;;;3.20;2.50;;;9.80;99.90;;;;;;5051006;28;20475;-70
2021/03/27 12:20:25;;;;;;;6.47;4.60;;;9.90;99.90;;;;;;5027901;28;20929;-71
2021/03/27 12:23:27;;;;;;;4.57;2.40;;;10.00;99.90;;;;;;5045121;28;20450;-70
2021/03/27 12:26:10;;;;;;;2.33;2.13;;;10.00;99.90;;;;;;5050661;28;20540;-69
2021/03/27 12:29:00;;;;;;;3.40;1.37;;;10.00;99.90;;;;;;5066517;28;20450;-70
2021/03/27 12:31:36;;;;;;;1.20;1.10;;;10.20;99.90;;;;;;5065000;28;20962;-70
2021/03/27 12:34:26;;;;;;;2.10;0.83;;;10.40;99.90;;;;;;5051075;28;20474;-70
2021/03/27 12:37:12;;;;;;;0.80;0.63;;;10.50;99.90;;;;;;5051990;28;20453;-71
2021/03/27 12:39:45;;;;;;;1.63;0.67;;;10.70;99.90;;;;;;5043093;28;20480;-70
2021/03/27 12:42:18;;;;;;;3.23;2.33;;;10.80;99.90;;;;;;5058326;28;20462;-70
2021/03/27 12:44:55;;;;;;;2.10;1.10;;;10.90;99.90;;;;;;5034541;28;20462;-69
2021/03/27 12:47:29;;;;;;;3.20;2.73;;;11.10;99.90;;;;;;5014948;28;20455;-70
2021/03/27 12:50:24;;;;;;;10.70;3.93;;;11.20;99.90;;;;;;5027023;28;20459;-70
2021/03/27 12:53:33;;;;;;;6.13;3.50;;;11.30;99.90;;;;;;5031903;28;20577;-69
2021/03/27 12:56:15;;;;;;;3.90;2.60;;;11.40;99.90;;;;;;5023497;28;20446;-69
2021/03/27 12:58:50;;;;;;;2.70;1.83;;;11.50;99.90;;;;;;5033647;28;20465;-70
2021/03/27 13:01:32;;;;;;;1.97;1.80;;;11.50;99.30;;;;;;5000817;28;20482;-70
2021/03/27 13:04:20;;;;;;;1.60;1.50;;;11.40;98.60;;;;;;5040198;28;20466;-69
2021/03/27 13:07:23;;;;;;;2.27;1.20;;;11.40;98.80;;;;;;5014079;28;20451;-68
2021/03/27 13:10:27;;;;;;;0.87;0.70;;;11.40;98.00;;;;;;5030456;28;20494;-70
2021/03/27 13:13:09;;;;;;;1.33;1.23;;;11.30;98.30;;;;;;5026442;28;21026;-70
2021/03/27 13:15:49;;;;;;;4.00;1.23;;;11.20;98.20;;;;;;5014173;28;20451;-69
2021/03/27 13:18:28;;;;;;;1.47;0.90;;;11.30;98.10;;;;;;5030921;28;20510;-69
2021/03/27 13:20:57;;;;;;;1.00;0.60;;;11.30;98.00;;;;;;5035785;28;20987;-70
2021/03/27 13:23:28;;;;;;;1.37;1.00;;;11.40;98.50;;;;;;5065729;28;20457;-68
2021/03/27 13:25:56;;;;;;;1.17;0.90;;;11.50;98.60;;;;;;5020437;28;20496;-71
2021/03/27 13:28:33;;;;;;;0.80;0.63;;;11.60;98.90;;;;;;5010719;28;20853;-69
2021/03/27 13:31:17;;;;;;;0.80;0.80;;;11.80;98.10;;;;;;5003606;28;20487;-68
2021/03/27 13:34:07;;;;;;;3.67;0.80;;;11.90;97.60;;;;;;5022228;28;20460;-69
2021/03/27 13:36:42;;;;;;;1.87;0.73;;;11.90;98.40;;;;;;5007679;28;20447;-70
2021/03/27 13:39:48;;;;;;;1.00;0.53;;;11.90;98.00;;;;;;5035446;28;20451;-70
2021/03/27 13:42:26;;;;;;;1.10;0.70;;;12.00;98.20;;;;;;5022869;28;20452;-69
2021/03/27 13:45:16;;;;;;;3.10;0.80;;;12.00;97.60;;;;;;5028698;28;20458;-70
2021/03/27 13:47:45;;;;;;;0.80;0.80;;;11.90;97.40;;;;;;5011163;28;20447;-70
2021/03/27 13:50:19;;;;;;;1.80;0.93;;;11.80;97.10;;;;;;5032379;28;20816;-70
2021/03/27 13:53:22;;;;;;;0.90;0.63;;;11.70;97.40;;;;;;5031903;28;20462;-71
2021/03/27 13:56:11;;;;;;;0.53;0.53;;;11.60;97.40;;;;;;5022822;28;20458;-70
2021/03/27 13:59:10;;;;;;;1.27;0.87;;;11.20;97.90;;;;;;5033889;28;20438;-70
2021/03/27 14:02:06;;;;;;;1.03;0.63;;;11.00;98.70;;;;;;5007326;28;20463;-70
2021/03/27 14:04:40;;;;;;;2.30;0.60;;;10.80;99.90;;;;;;5016716;28;20459;-68
2021/03/27 14:07:21;;;;;;;0.97;0.60;;;10.60;99.90;;;;;;4993788;28;20543;-70
2021/03/27 14:10:07;;;;;;;0.93;0.60;;;10.50;99.90;;;;;;5003417;28;20880;-70
2021/03/27 14:12:36;;;;;;;2.33;0.93;;;10.30;99.90;;;;;;5033435;28;20444;-69
2021/03/27 14:15:04;;;;;;;7.57;4.13;;;10.20;99.90;;;;;;5011096;28;20475;-70
2021/03/27 14:17:53;;;;;;;8.70;5.33;;;10.30;99.90;;;;;;5016965;28;20448;-69
2021/03/27 14:20:41;;;;;;;5.37;3.77;;;10.30;99.90;;;;;;5026139;28;20476;-70
2021/03/27 14:23:25;;;;;;;5.13;2.77;;;10.50;99.90;;;;;;5018162;28;20532;-68
2021/03/27 14:26:11;;;;;;;1.63;1.30;;;10.60;99.90;;;;;;5016116;28;20451;-69
2021/03/27 14:28:51;;;;;;;1.30;1.10;;;10.70;99.90;;;;;;5028409;28;20453;-69